sensor_id;sensor_type;location;lat;lon;timestamp;temperature;humidity
71237;DHT22;58984;51.960;5.582;2024-01-11T00:00:41;6.00;45.80
71237;DHT22;58984;51.960;5.582;2024-01-11T00:03:07;6.00;45.90
71237;DHT22;58984;51.960;5.582;2024-01-11T00:05:35;6.00;46.00
71237;DHT22;58984;51.960;5.582;2024-01-11T00:08:01;6.00;46.00
71237;DHT22;58984;51.960;5.582;2024-01-11T00:10:27;6.00;46.00
71237;DHT22;58984;51.960;5.582;2024-01-11T00:12:53;6.00;45.90
71237;DHT22;58984;51.960;5.582;2024-01-11T00:15:21;5.90;46.00
71237;DHT22;58984;51.960;5.582;2024-01-11T00:17:47;6.00;46.20
71237;DHT22;58984;51.960;5.582;2024-01-11T00:20:12;6.00;46.00
71237;DHT22;58984;51.960;5.582;2024-01-11T00:22:38;5.90;45.90
71237;DHT22;58984;51.960;5.582;2024-01-11T00:25:04;6.00;46.10
71237;DHT22;58984;51.960;5.582;2024-01-11T00:27:30;5.90;46.10
71237;DHT22;58984;51.960;5.582;2024-01-11T00:29:55;5.90;46.00
71237;DHT22;58984;51.960;5.582;2024-01-11T00:32:21;5.90;46.10
71237;DHT22;58984;51.960;5.582;2024-01-11T00:34:47;5.90;46.20
71237;DHT22;58984;51.960;5.582;2024-01-11T00:37:13;5.90;46.20
71237;DHT22;58984;51.960;5.582;2024-01-11T00:39:39;5.90;46.20
71237;DHT22;58984;51.960;5.582;2024-01-11T00:42:04;5.90;46.10
71237;DHT22;58984;51.960;5.582;2024-01-11T00:44:30;5.80;45.90
71237;DHT22;58984;51.960;5.582;2024-01-11T00:46:56;5.80;45.90
71237;DHT22;58984;51.960;5.582;2024-01-11T00:49:24;5.80;46.00
71237;DHT22;58984;51.960;5.582;2024-01-11T00:51:50;5.80;46.10
71237;DHT22;58984;51.960;5.582;2024-01-11T00:54:15;5.80;45.80
71237;DHT22;58984;51.960;5.582;2024-01-11T00:56:41;5.80;46.00
71237;DHT22;58984;51.960;5.582;2024-01-11T00:59:07;5.80;46.10
71237;DHT22;58984;51.960;5.582;2024-01-11T01:01:32;5.80;46.00
71237;DHT22;58984;51.960;5.582;2024-01-11T01:03:58;5.70;45.90
71237;DHT22;58984;51.960;5.582;2024-01-11T01:06:24;5.70;45.90
71237;DHT22;58984;51.960;5.582;2024-01-11T01:08:53;5.80;45.90
71237;DHT22;58984;51.960;5.582;2024-01-11T01:11:19;5.70;46.10
71237;DHT22;58984;51.960;5.582;2024-01-11T01:13:45;5.70;45.80
71237;DHT22;58984;51.960;5.582;2024-01-11T01:16:10;5.70;45.90
71237;DHT22;58984;51.960;5.582;2024-01-11T01:18:36;5.70;45.90
71237;DHT22;58984;51.960;5.582;2024-01-11T01:21:02;5.70;45.90
71237;DHT22;58984;51.960;5.582;2024-01-11T01:23:27;5.70;45.90
71237;DHT22;58984;51.960;5.582;2024-01-11T01:25:53;5.60;45.80
71237;DHT22;58984;51.960;5.582;2024-01-11T01:28:19;5.70;45.90
71237;DHT22;58984;51.960;5.582;2024-01-11T01:30:45;5.70;46.70
71237;DHT22;58984;51.960;5.582;2024-01-11T01:33:10;5.70;46.10
71237;DHT22;58984;51.960;5.582;2024-01-11T01:35:36;5.60;46.00
71237;DHT22;58984;51.960;5.582;2024-01-11T01:38:02;5.60;46.00
71237;DHT22;58984;51.960;5.582;2024-01-11T01:40:30;5.60;45.90
71237;DHT22;58984;51.960;5.582;2024-01-11T01:43:00;5.60;45.90
71237;DHT22;58984;51.960;5.582;2024-01-11T01:45:26;5.60;46.60
71237;DHT22;58984;51.960;5.582;2024-01-11T01:47:53;5.60;46.00
71237;DHT22;58984;51.960;5.582;2024-01-11T01:50:20;5.60;46.10
71237;DHT22;58984;51.960;5.582;2024-01-11T01:52:50;5.60;45.90
71237;DHT22;58984;51.960;5.582;2024-01-11T01:55:17;5.60;46.10
71237;DHT22;58984;51.960;5.582;2024-01-11T01:57:50;5.50;46.10
71237;DHT22;58984;51.960;5.582;2024-01-11T02:00:17;5.50;46.80
71237;DHT22;58984;51.960;5.582;2024-01-11T02:02:44;5.50;46.10
71237;DHT22;58984;51.960;5.582;2024-01-11T02:05:11;5.50;46.20
71237;DHT22;58984;51.960;5.582;2024-01-11T02:07:40;5.50;46.10
71237;DHT22;58984;51.960;5.582;2024-01-11T02:10:07;5.50;46.10
71237;DHT22;58984;51.960;5.582;2024-01-11T02:12:35;5.50;46.20
71237;DHT22;58984;51.960;5.582;2024-01-11T02:15:02;5.40;46.00
71237;DHT22;58984;51.960;5.582;2024-01-11T02:17:29;5.40;46.00
71237;DHT22;58984;51.960;5.582;2024-01-11T02:19:55;5.50;46.20
71237;DHT22;58984;51.960;5.582;2024-01-11T02:22:30;5.40;46.00
71237;DHT22;58984;51.960;5.582;2024-01-11T02:24:57;5.40;46.20
71237;DHT22;58984;51.960;5.582;2024-01-11T02:27:23;5.40;46.00
71237;DHT22;58984;51.960;5.582;2024-01-11T02:29:49;5.40;45.90
71237;DHT22;58984;51.960;5.582;2024-01-11T02:32:15;5.40;46.00
71237;DHT22;58984;51.960;5.582;2024-01-11T02:34:41;5.40;46.00
71237;DHT22;58984;51.960;5.582;2024-01-11T02:37:07;5.40;46.20
71237;DHT22;58984;51.960;5.582;2024-01-11T02:39:33;5.40;46.00
71237;DHT22;58984;51.960;5.582;2024-01-11T02:42:00;5.30;45.90
71237;DHT22;58984;51.960;5.582;2024-01-11T02:44:26;5.30;46.10
71237;DHT22;58984;51.960;5.582;2024-01-11T02:46:52;5.30;46.10
71237;DHT22;58984;51.960;5.582;2024-01-11T02:49:17;5.30;46.10
71237;DHT22;58984;51.960;5.582;2024-01-11T02:51:43;5.30;45.90
71237;DHT22;58984;51.960;5.582;2024-01-11T02:54:08;5.30;46.00
71237;DHT22;58984;51.960;5.582;2024-01-11T02:56:36;5.30;46.20
71237;DHT22;58984;51.960;5.582;2024-01-11T02:59:02;5.30;46.20
71237;DHT22;58984;51.960;5.582;2024-01-11T03:01:28;5.30;46.10
71237;DHT22;58984;51.960;5.582;2024-01-11T03:03:54;5.20;46.00
71237;DHT22;58984;51.960;5.582;2024-01-11T03:06:20;5.20;46.00
71237;DHT22;58984;51.960;5.582;2024-01-11T03:08:48;5.20;46.00
71237;DHT22;58984;51.960;5.582;2024-01-11T03:11:14;5.20;45.90
71237;DHT22;58984;51.960;5.582;2024-01-11T03:13:40;5.20;46.10
71237;DHT22;58984;51.960;5.582;2024-01-11T03:16:06;5.20;45.90
71237;DHT22;58984;51.960;5.582;2024-01-11T03:18:31;5.20;46.10
71237;DHT22;58984;51.960;5.582;2024-01-11T03:20:57;5.20;46.10
71237;DHT22;58984;51.960;5.582;2024-01-11T03:23:23;5.10;46.00
71237;DHT22;58984;51.960;5.582;2024-01-11T03:25:51;5.10;46.10
71237;DHT22;58984;51.960;5.582;2024-01-11T03:28:17;5.10;46.10
71237;DHT22;58984;51.960;5.582;2024-01-11T03:30:43;5.10;46.10
71237;DHT22;58984;51.960;5.582;2024-01-11T03:33:09;5.10;46.00
71237;DHT22;58984;51.960;5.582;2024-01-11T03:35:34;5.10;46.10
71237;DHT22;58984;51.960;5.582;2024-01-11T03:38:00;5.00;46.10
71237;DHT22;58984;51.960;5.582;2024-01-11T03:40:26;5.10;46.10
71237;DHT22;58984;51.960;5.582;2024-01-11T03:42:52;5.10;46.00
71237;DHT22;58984;51.960;5.582;2024-01-11T03:45:18;5.10;46.00
71237;DHT22;58984;51.960;5.582;2024-01-11T03:47:44;5.00;46.10
71237;DHT22;58984;51.960;5.582;2024-01-11T03:50:10;5.10;46.10
71237;DHT22;58984;51.960;5.582;2024-01-11T03:52:36;5.00;46.10
71237;DHT22;58984;51.960;5.582;2024-01-11T03:55:02;5.00;46.10
71237;DHT22;58984;51.960;5.582;2024-01-11T03:57:27;5.00;46.00
71237;DHT22;58984;51.960;5.582;2024-01-11T03:59:53;5.00;46.10
71237;DHT22;58984;51.960;5.582;2024-01-11T04:02:19;4.90;46.10
71237;DHT22;58984;51.960;5.582;2024-01-11T04:04:45;5.00;46.10
71237;DHT22;58984;51.960;5.582;2024-01-11T04:07:10;5.00;46.10
71237;DHT22;58984;51.960;5.582;2024-01-11T04:09:41;5.00;46.00
71237;DHT22;58984;51.960;5.582;2024-01-11T04:12:07;5.00;46.30
71237;DHT22;58984;51.960;5.582;2024-01-11T04:14:37;4.90;46.20
71237;DHT22;58984;51.960;5.582;2024-01-11T04:17:02;4.90;46.30
71237;DHT22;58984;51.960;5.582;2024-01-11T04:19:31;4.90;46.20
71237;DHT22;58984;51.960;5.582;2024-01-11T04:21:57;5.00;46.40
71237;DHT22;58984;51.960;5.582;2024-01-11T04:24:22;5.00;46.30
71237;DHT22;58984;51.960;5.582;2024-01-11T04:26:48;4.90;46.20
71237;DHT22;58984;51.960;5.582;2024-01-11T04:29:14;4.90;46.30
71237;DHT22;58984;51.960;5.582;2024-01-11T04:31:39;4.80;46.20
71237;DHT22;58984;51.960;5.582;2024-01-11T04:34:05;4.90;46.20
71237;DHT22;58984;51.960;5.582;2024-01-11T04:36:31;4.80;46.30
71237;DHT22;58984;51.960;5.582;2024-01-11T04:38:56;4.80;46.30
71237;DHT22;58984;51.960;5.582;2024-01-11T04:41:25;4.80;46.40
71237;DHT22;58984;51.960;5.582;2024-01-11T04:43:51;4.80;46.40
71237;DHT22;58984;51.960;5.582;2024-01-11T04:46:21;4.80;46.30
71237;DHT22;58984;51.960;5.582;2024-01-11T04:48:49;4.80;46.60
71237;DHT22;58984;51.960;5.582;2024-01-11T04:51:16;4.80;46.60
71237;DHT22;58984;51.960;5.582;2024-01-11T04:53:44;4.80;46.40
71237;DHT22;58984;51.960;5.582;2024-01-11T04:56:13;4.70;46.40
71237;DHT22;58984;51.960;5.582;2024-01-11T04:58:41;4.80;46.60
71237;DHT22;58984;51.960;5.582;2024-01-11T05:01:07;4.80;46.60
71237;DHT22;58984;51.960;5.582;2024-01-11T05:03:36;4.70;46.50
71237;DHT22;58984;51.960;5.582;2024-01-11T05:06:02;4.70;46.50
71237;DHT22;58984;51.960;5.582;2024-01-11T05:08:29;4.70;46.40
71237;DHT22;58984;51.960;5.582;2024-01-11T05:10:57;4.70;46.60
71237;DHT22;58984;51.960;5.582;2024-01-11T05:13:22;4.70;46.60
71237;DHT22;58984;51.960;5.582;2024-01-11T05:15:48;4.70;46.40
71237;DHT22;58984;51.960;5.582;2024-01-11T05:18:14;4.70;46.40
71237;DHT22;58984;51.960;5.582;2024-01-11T05:20:40;4.70;46.60
71237;DHT22;58984;51.960;5.582;2024-01-11T05:23:06;4.70;46.40
71237;DHT22;58984;51.960;5.582;2024-01-11T05:25:32;4.70;46.60
71237;DHT22;58984;51.960;5.582;2024-01-11T05:28:01;4.60;46.50
71237;DHT22;58984;51.960;5.582;2024-01-11T05:30:27;4.70;46.60
71237;DHT22;58984;51.960;5.582;2024-01-11T05:32:54;4.70;46.60
71237;DHT22;58984;51.960;5.582;2024-01-11T05:35:19;4.60;46.50
71237;DHT22;58984;51.960;5.582;2024-01-11T05:37:45;4.70;46.60
71237;DHT22;58984;51.960;5.582;2024-01-11T05:40:11;4.60;47.20
71237;DHT22;58984;51.960;5.582;2024-01-11T05:42:36;4.60;46.50
71237;DHT22;58984;51.960;5.582;2024-01-11T05:45:04;4.60;46.50
71237;DHT22;58984;51.960;5.582;2024-01-11T05:47:30;4.60;46.60
71237;DHT22;58984;51.960;5.582;2024-01-11T05:49:56;4.50;46.40
71237;DHT22;58984;51.960;5.582;2024-01-11T05:52:22;4.50;46.40
71237;DHT22;58984;51.960;5.582;2024-01-11T05:54:47;4.50;46.30
71237;DHT22;58984;51.960;5.582;2024-01-11T05:57:13;4.60;46.50
71237;DHT22;58984;51.960;5.582;2024-01-11T05:59:44;4.50;46.40
71237;DHT22;58984;51.960;5.582;2024-01-11T06:02:11;4.50;46.50
71237;DHT22;58984;51.960;5.582;2024-01-11T06:04:36;4.50;46.50
71237;DHT22;58984;51.960;5.582;2024-01-11T06:07:02;4.50;46.50
71237;DHT22;58984;51.960;5.582;2024-01-11T06:09:28;4.50;46.40
71237;DHT22;58984;51.960;5.582;2024-01-11T06:11:53;4.50;46.30
71237;DHT22;58984;51.960;5.582;2024-01-11T06:14:19;4.50;46.30
71237;DHT22;58984;51.960;5.582;2024-01-11T06:16:45;4.50;46.40
71237;DHT22;58984;51.960;5.582;2024-01-11T06:19:11;4.50;46.40
71237;DHT22;58984;51.960;5.582;2024-01-11T06:21:36;4.50;46.50
71237;DHT22;58984;51.960;5.582;2024-01-11T06:24:02;4.50;46.50
71237;DHT22;58984;51.960;5.582;2024-01-11T06:26:29;4.40;46.40
71237;DHT22;58984;51.960;5.582;2024-01-11T06:28:54;4.40;46.30
71237;DHT22;58984;51.960;5.582;2024-01-11T06:31:20;4.40;46.40
71237;DHT22;58984;51.960;5.582;2024-01-11T06:33:46;4.40;46.30
71237;DHT22;58984;51.960;5.582;2024-01-11T06:36:11;4.40;46.30
71237;DHT22;58984;51.960;5.582;2024-01-11T06:38:37;4.40;46.40
71237;DHT22;58984;51.960;5.582;2024-01-11T06:41:03;4.40;46.40
71237;DHT22;58984;51.960;5.582;2024-01-11T06:43:29;4.30;46.30
71237;DHT22;58984;51.960;5.582;2024-01-11T06:45:54;4.40;46.40
71237;DHT22;58984;51.960;5.582;2024-01-11T06:48:20;4.40;46.50
71237;DHT22;58984;51.960;5.582;2024-01-11T06:50:46;4.30;47.10
71237;DHT22;58984;51.960;5.582;2024-01-11T06:53:11;4.40;46.60
71237;DHT22;58984;51.960;5.582;2024-01-11T06:55:37;4.40;46.50
71237;DHT22;58984;51.960;5.582;2024-01-11T06:58:03;4.40;46.80
71237;DHT22;58984;51.960;5.582;2024-01-11T07:00:28;4.40;46.80
71237;DHT22;58984;51.960;5.582;2024-01-11T07:02:54;4.30;46.70
71237;DHT22;58984;51.960;5.582;2024-01-11T07:05:20;4.40;47.50
71237;DHT22;58984;51.960;5.582;2024-01-11T07:07:46;4.40;46.90
71237;DHT22;58984;51.960;5.582;2024-01-11T07:10:12;4.40;46.80
71237;DHT22;58984;51.960;5.582;2024-01-11T07:12:38;4.30;46.70
71237;DHT22;58984;51.960;5.582;2024-01-11T07:15:06;4.40;47.00
71237;DHT22;58984;51.960;5.582;2024-01-11T07:17:33;4.30;46.80
71237;DHT22;58984;51.960;5.582;2024-01-11T07:19:59;4.40;46.80
71237;DHT22;58984;51.960;5.582;2024-01-11T07:22:25;4.30;46.80
71237;DHT22;58984;51.960;5.582;2024-01-11T07:24:50;4.30;46.80
71237;DHT22;58984;51.960;5.582;2024-01-11T07:27:16;4.30;46.90
71237;DHT22;58984;51.960;5.582;2024-01-11T07:29:41;4.30;46.90
71237;DHT22;58984;51.960;5.582;2024-01-11T07:32:07;4.30;46.90
71237;DHT22;58984;51.960;5.582;2024-01-11T07:34:34;4.30;46.90
71237;DHT22;58984;51.960;5.582;2024-01-11T07:37:00;4.20;46.80
71237;DHT22;58984;51.960;5.582;2024-01-11T07:39:26;4.30;46.90
71237;DHT22;58984;51.960;5.582;2024-01-11T07:41:51;4.30;46.90
71237;DHT22;58984;51.960;5.582;2024-01-11T07:44:18;4.30;46.80
71237;DHT22;58984;51.960;5.582;2024-01-11T07:46:44;4.30;46.90
71237;DHT22;58984;51.960;5.582;2024-01-11T07:49:09;4.30;46.90
71237;DHT22;58984;51.960;5.582;2024-01-11T07:51:36;4.20;47.00
71237;DHT22;58984;51.960;5.582;2024-01-11T07:54:01;4.20;46.90
71237;DHT22;58984;51.960;5.582;2024-01-11T07:56:28;4.20;47.10
71237;DHT22;58984;51.960;5.582;2024-01-11T07:58:54;4.30;47.20
71237;DHT22;58984;51.960;5.582;2024-01-11T08:01:20;4.20;46.90
71237;DHT22;58984;51.960;5.582;2024-01-11T08:03:46;4.20;47.10
71237;DHT22;58984;51.960;5.582;2024-01-11T08:06:12;4.20;47.10
71237;DHT22;58984;51.960;5.582;2024-01-11T08:08:38;4.20;47.30
71237;DHT22;58984;51.960;5.582;2024-01-11T08:11:17;4.20;47.20
71237;DHT22;58984;51.960;5.582;2024-01-11T08:13:44;4.20;47.10
71237;DHT22;58984;51.960;5.582;2024-01-11T08:16:18;4.20;47.10
71237;DHT22;58984;51.960;5.582;2024-01-11T08:18:50;4.20;47.20
71237;DHT22;58984;51.960;5.582;2024-01-11T08:21:18;4.20;47.30
71237;DHT22;58984;51.960;5.582;2024-01-11T08:23:44;4.20;47.40
71237;DHT22;58984;51.960;5.582;2024-01-11T08:26:13;4.20;47.20
71237;DHT22;58984;51.960;5.582;2024-01-11T08:28:39;4.20;47.30
71237;DHT22;58984;51.960;5.582;2024-01-11T08:31:05;4.20;47.30
71237;DHT22;58984;51.960;5.582;2024-01-11T08:33:31;4.20;47.60
71237;DHT22;58984;51.960;5.582;2024-01-11T08:35:57;4.20;47.40
71237;DHT22;58984;51.960;5.582;2024-01-11T08:38:23;4.20;47.50
71237;DHT22;58984;51.960;5.582;2024-01-11T08:40:50;4.20;47.60
71237;DHT22;58984;51.960;5.582;2024-01-11T08:43:15;4.20;47.70
71237;DHT22;58984;51.960;5.582;2024-01-11T08:45:41;4.20;47.80
71237;DHT22;58984;51.960;5.582;2024-01-11T08:48:08;4.20;47.80
71237;DHT22;58984;51.960;5.582;2024-01-11T08:50:35;4.20;47.80
71237;DHT22;58984;51.960;5.582;2024-01-11T08:53:00;4.20;48.50
71237;DHT22;58984;51.960;5.582;2024-01-11T08:55:26;4.20;47.90
71237;DHT22;58984;51.960;5.582;2024-01-11T08:57:52;4.20;47.90
71237;DHT22;58984;51.960;5.582;2024-01-11T09:00:18;4.20;48.00
71237;DHT22;58984;51.960;5.582;2024-01-11T09:02:44;4.20;48.00
71237;DHT22;58984;51.960;5.582;2024-01-11T09:05:11;4.20;47.80
71237;DHT22;58984;51.960;5.582;2024-01-11T09:07:37;4.20;48.00
71237;DHT22;58984;51.960;5.582;2024-01-11T09:10:03;4.20;47.80
71237;DHT22;58984;51.960;5.582;2024-01-11T09:12:28;4.20;48.10
71237;DHT22;58984;51.960;5.582;2024-01-11T09:14:54;4.20;48.20
71237;DHT22;58984;51.960;5.582;2024-01-11T09:17:20;4.20;48.20
71237;DHT22;58984;51.960;5.582;2024-01-11T09:19:47;4.30;48.20
71237;DHT22;58984;51.960;5.582;2024-01-11T09:22:12;4.20;48.00
71237;DHT22;58984;51.960;5.582;2024-01-11T09:24:38;4.30;48.30
71237;DHT22;58984;51.960;5.582;2024-01-11T09:27:04;4.30;48.50
71237;DHT22;58984;51.960;5.582;2024-01-11T09:29:30;4.30;48.30
71237;DHT22;58984;51.960;5.582;2024-01-11T09:31:55;4.30;48.50
71237;DHT22;58984;51.960;5.582;2024-01-11T09:34:21;4.30;48.40
71237;DHT22;58984;51.960;5.582;2024-01-11T09:36:47;4.40;48.60
71237;DHT22;58984;51.960;5.582;2024-01-11T09:39:13;4.40;48.60
71237;DHT22;58984;51.960;5.582;2024-01-11T09:41:59;4.50;48.70
71237;DHT22;58984;51.960;5.582;2024-01-11T09:44:26;4.50;49.00
71237;DHT22;58984;51.960;5.582;2024-01-11T09:46:55;4.50;48.80
71237;DHT22;58984;51.960;5.582;2024-01-11T09:49:22;4.50;49.00
71237;DHT22;58984;51.960;5.582;2024-01-11T09:51:48;4.60;49.00
71237;DHT22;58984;51.960;5.582;2024-01-11T09:54:15;4.60;49.10
71237;DHT22;58984;51.960;5.582;2024-01-11T09:56:43;4.60;49.10
71237;DHT22;58984;51.960;5.582;2024-01-11T09:59:09;4.70;48.90
71237;DHT22;58984;51.960;5.582;2024-01-11T10:01:36;4.70;49.30
71237;DHT22;58984;51.960;5.582;2024-01-11T10:04:03;4.80;49.10
71237;DHT22;58984;51.960;5.582;2024-01-11T10:06:32;4.80;49.00
71237;DHT22;58984;51.960;5.582;2024-01-11T10:08:58;4.80;49.40
71237;DHT22;58984;51.960;5.582;2024-01-11T10:11:27;4.90;49.20
71237;DHT22;58984;51.960;5.582;2024-01-11T10:13:58;5.00;49.30
71237;DHT22;58984;51.960;5.582;2024-01-11T10:16:28;5.10;49.40
71237;DHT22;58984;51.960;5.582;2024-01-11T10:18:57;5.10;49.70
71237;DHT22;58984;51.960;5.582;2024-01-11T10:21:27;5.20;49.70
71237;DHT22;58984;51.960;5.582;2024-01-11T10:23:57;5.30;49.70
71237;DHT22;58984;51.960;5.582;2024-01-11T10:26:28;5.30;49.60
71237;DHT22;58984;51.960;5.582;2024-01-11T10:28:59;5.40;49.80
71237;DHT22;58984;51.960;5.582;2024-01-11T10:31:28;5.50;50.10
71237;DHT22;58984;51.960;5.582;2024-01-11T10:33:54;5.50;50.10
71237;DHT22;58984;51.960;5.582;2024-01-11T10:36:20;5.60;50.00
71237;DHT22;58984;51.960;5.582;2024-01-11T10:38:52;5.70;49.80
71237;DHT22;58984;51.960;5.582;2024-01-11T10:41:20;5.80;50.30
71237;DHT22;58984;51.960;5.582;2024-01-11T10:43:46;5.80;50.00
71237;DHT22;58984;51.960;5.582;2024-01-11T10:46:14;5.90;50.60
71237;DHT22;58984;51.960;5.582;2024-01-11T10:48:44;6.00;50.60
71237;DHT22;58984;51.960;5.582;2024-01-11T10:51:13;6.00;50.70
71237;DHT22;58984;51.960;5.582;2024-01-11T10:53:47;6.20;50.70
71237;DHT22;58984;51.960;5.582;2024-01-11T10:56:15;6.20;50.60
71237;DHT22;58984;51.960;5.582;2024-01-11T10:58:44;6.30;50.60
71237;DHT22;58984;51.960;5.582;2024-01-11T11:01:14;6.40;51.00
71237;DHT22;58984;51.960;5.582;2024-01-11T11:03:46;6.40;50.90
71237;DHT22;58984;51.960;5.582;2024-01-11T11:06:14;6.50;51.00
71237;DHT22;58984;51.960;5.582;2024-01-11T11:08:47;6.60;51.10
71237;DHT22;58984;51.960;5.582;2024-01-11T11:11:15;6.60;51.30
71237;DHT22;58984;51.960;5.582;2024-01-11T11:13:47;6.70;51.30
71237;DHT22;58984;51.960;5.582;2024-01-11T11:16:15;6.80;51.60
71237;DHT22;58984;51.960;5.582;2024-01-11T11:18:41;6.90;51.60
71237;DHT22;58984;51.960;5.582;2024-01-11T11:21:10;6.90;51.50
71237;DHT22;58984;51.960;5.582;2024-01-11T11:23:39;6.90;51.60
71237;DHT22;58984;51.960;5.582;2024-01-11T11:26:06;6.90;51.50
71237;DHT22;58984;51.960;5.582;2024-01-11T11:28:35;6.90;51.70
71237;DHT22;58984;51.960;5.582;2024-01-11T11:31:02;7.00;51.60
71237;DHT22;58984;51.960;5.582;2024-01-11T11:33:29;7.00;51.50
71237;DHT22;58984;51.960;5.582;2024-01-11T11:35:59;7.00;51.70
71237;DHT22;58984;51.960;5.582;2024-01-11T11:38:30;7.00;51.70
71237;DHT22;58984;51.960;5.582;2024-01-11T11:41:01;7.00;52.00
71237;DHT22;58984;51.960;5.582;2024-01-11T11:43:28;7.00;51.80
71237;DHT22;58984;51.960;5.582;2024-01-11T11:45:57;7.00;52.00
71237;DHT22;58984;51.960;5.582;2024-01-11T11:53:37;7.00;52.10
71237;DHT22;58984;51.960;5.582;2024-01-11T11:56:04;6.90;52.20
71237;DHT22;58984;51.960;5.582;2024-01-11T11:58:36;6.90;52.20
71237;DHT22;58984;51.960;5.582;2024-01-11T12:01:03;7.00;52.40
71237;DHT22;58984;51.960;5.582;2024-01-11T12:03:31;6.90;52.80
71237;DHT22;58984;51.960;5.582;2024-01-11T12:05:58;7.00;52.50
71237;DHT22;58984;51.960;5.582;2024-01-11T12:08:23;7.00;52.40
71237;DHT22;58984;51.960;5.582;2024-01-11T12:10:51;6.90;52.50
71237;DHT22;58984;51.960;5.582;2024-01-11T12:13:17;6.90;52.50
71237;DHT22;58984;51.960;5.582;2024-01-11T12:15:43;6.90;52.60
71237;DHT22;58984;51.960;5.582;2024-01-11T12:18:08;6.90;52.60
71237;DHT22;58984;51.960;5.582;2024-01-11T12:20:34;7.00;52.80
71237;DHT22;58984;51.960;5.582;2024-01-11T12:23:00;6.90;52.60
71237;DHT22;58984;51.960;5.582;2024-01-11T12:25:30;6.90;52.70
71237;DHT22;58984;51.960;5.582;2024-01-11T12:27:56;6.90;52.80
71237;DHT22;58984;51.960;5.582;2024-01-11T12:30:23;6.90;52.70
71237;DHT22;58984;51.960;5.582;2024-01-11T12:32:49;6.90;52.90
71237;DHT22;58984;51.960;5.582;2024-01-11T12:35:16;6.90;52.90
71237;DHT22;58984;51.960;5.582;2024-01-11T12:37:55;6.90;52.90
71237;DHT22;58984;51.960;5.582;2024-01-11T12:40:23;6.90;53.00
71237;DHT22;58984;51.960;5.582;2024-01-11T12:42:49;7.00;52.90
71237;DHT22;58984;51.960;5.582;2024-01-11T12:45:21;6.90;52.90
71237;DHT22;58984;51.960;5.582;2024-01-11T12:47:48;6.90;53.00
71237;DHT22;58984;51.960;5.582;2024-01-11T12:50:14;6.90;53.10
71237;DHT22;58984;51.960;5.582;2024-01-11T12:52:39;6.90;53.10
71237;DHT22;58984;51.960;5.582;2024-01-11T12:55:07;6.90;53.10
71237;DHT22;58984;51.960;5.582;2024-01-11T12:57:34;6.90;53.20
71237;DHT22;58984;51.960;5.582;2024-01-11T13:00:10;6.90;53.20
71237;DHT22;58984;51.960;5.582;2024-01-11T13:02:36;6.90;53.20
71237;DHT22;58984;51.960;5.582;2024-01-11T13:05:02;7.00;53.30
71237;DHT22;58984;51.960;5.582;2024-01-11T13:07:31;7.00;53.60
71237;DHT22;58984;51.960;5.582;2024-01-11T13:09:59;6.90;53.50
71237;DHT22;58984;51.960;5.582;2024-01-11T13:12:25;7.00;53.60
71237;DHT22;58984;51.960;5.582;2024-01-11T13:14:50;7.00;53.40
71237;DHT22;58984;51.960;5.582;2024-01-11T13:17:23;7.00;53.50
71237;DHT22;58984;51.960;5.582;2024-01-11T13:19:49;7.00;53.50
71237;DHT22;58984;51.960;5.582;2024-01-11T13:22:17;7.00;53.40
71237;DHT22;58984;51.960;5.582;2024-01-11T13:24:46;7.00;53.40
71237;DHT22;58984;51.960;5.582;2024-01-11T13:27:12;7.00;53.40
71237;DHT22;58984;51.960;5.582;2024-01-11T13:29:37;7.00;53.50
71237;DHT22;58984;51.960;5.582;2024-01-11T13:32:06;7.00;53.60
71237;DHT22;58984;51.960;5.582;2024-01-11T13:34:32;7.00;53.40
71237;DHT22;58984;51.960;5.582;2024-01-11T13:36:58;7.10;53.50
71237;DHT22;58984;51.960;5.582;2024-01-11T13:39:25;7.10;53.60
71237;DHT22;58984;51.960;5.582;2024-01-11T13:41:51;7.10;53.80
71237;DHT22;58984;51.960;5.582;2024-01-11T13:44:17;7.10;53.70
71237;DHT22;58984;51.960;5.582;2024-01-11T13:46:43;7.10;53.70
71237;DHT22;58984;51.960;5.582;2024-01-11T13:49:09;7.10;53.80
71237;DHT22;58984;51.960;5.582;2024-01-11T13:51:35;7.10;53.80
71237;DHT22;58984;51.960;5.582;2024-01-11T13:54:03;7.10;53.80
71237;DHT22;58984;51.960;5.582;2024-01-11T13:56:28;7.10;53.80
71237;DHT22;58984;51.960;5.582;2024-01-11T13:58:55;7.10;53.40
71237;DHT22;58984;51.960;5.582;2024-01-11T14:01:20;7.10;53.90
71237;DHT22;58984;51.960;5.582;2024-01-11T14:03:46;7.10;53.90
71237;DHT22;58984;51.960;5.582;2024-01-11T14:06:12;7.10;53.90
71237;DHT22;58984;51.960;5.582;2024-01-11T14:08:38;7.10;53.90
71237;DHT22;58984;51.960;5.582;2024-01-11T14:11:04;7.10;54.60
71237;DHT22;58984;51.960;5.582;2024-01-11T14:13:30;7.10;54.00
71237;DHT22;58984;51.960;5.582;2024-01-11T14:15:55;7.10;54.00
71237;DHT22;58984;51.960;5.582;2024-01-11T14:18:22;7.10;54.10
71237;DHT22;58984;51.960;5.582;2024-01-11T14:20:48;7.10;54.10
71237;DHT22;58984;51.960;5.582;2024-01-11T14:23:14;7.10;53.90
71237;DHT22;58984;51.960;5.582;2024-01-11T14:25:40;7.10;54.00
71237;DHT22;58984;51.960;5.582;2024-01-11T14:28:08;7.10;54.20
71237;DHT22;58984;51.960;5.582;2024-01-11T14:30:34;7.20;54.10
71237;DHT22;58984;51.960;5.582;2024-01-11T14:33:00;7.20;54.30
71237;DHT22;58984;51.960;5.582;2024-01-11T14:35:26;7.10;54.20
71237;DHT22;58984;51.960;5.582;2024-01-11T14:37:51;7.20;54.20
71237;DHT22;58984;51.960;5.582;2024-01-11T14:40:18;7.20;54.30
71237;DHT22;58984;51.960;5.582;2024-01-11T14:42:44;7.20;54.30
71237;DHT22;58984;51.960;5.582;2024-01-11T14:45:09;7.20;54.30
71237;DHT22;58984;51.960;5.582;2024-01-11T14:47:35;7.20;54.30
71237;DHT22;58984;51.960;5.582;2024-01-11T14:50:01;7.20;54.40
71237;DHT22;58984;51.960;5.582;2024-01-11T14:52:29;7.20;54.50
71237;DHT22;58984;51.960;5.582;2024-01-11T14:54:56;7.20;54.50
71237;DHT22;58984;51.960;5.582;2024-01-11T14:57:22;7.20;54.50
71237;DHT22;58984;51.960;5.582;2024-01-11T14:59:48;7.20;54.50
71237;DHT22;58984;51.960;5.582;2024-01-11T15:02:14;7.20;54.60
71237;DHT22;58984;51.960;5.582;2024-01-11T15:04:40;7.20;54.70
71237;DHT22;58984;51.960;5.582;2024-01-11T15:07:06;7.20;54.60
71237;DHT22;58984;51.960;5.582;2024-01-11T15:09:32;7.20;54.60
71237;DHT22;58984;51.960;5.582;2024-01-11T15:11:57;7.20;54.70
71237;DHT22;58984;51.960;5.582;2024-01-11T15:14:25;7.20;54.70
71237;DHT22;58984;51.960;5.582;2024-01-11T15:16:56;7.20;54.50
71237;DHT22;58984;51.960;5.582;2024-01-11T15:19:21;7.20;54.60
71237;DHT22;58984;51.960;5.582;2024-01-11T15:21:47;7.20;54.70
71237;DHT22;58984;51.960;5.582;2024-01-11T15:24:12;7.20;54.70
71237;DHT22;58984;51.960;5.582;2024-01-11T15:26:38;7.20;54.70
71237;DHT22;58984;51.960;5.582;2024-01-11T15:29:04;7.30;54.90
71237;DHT22;58984;51.960;5.582;2024-01-11T15:31:29;7.20;54.80
71237;DHT22;58984;51.960;5.582;2024-01-11T15:33:55;7.20;54.80
71237;DHT22;58984;51.960;5.582;2024-01-11T15:36:21;7.20;54.90
71237;DHT22;58984;51.960;5.582;2024-01-11T15:38:47;7.20;54.90
71237;DHT22;58984;51.960;5.582;2024-01-11T15:41:14;7.20;54.90
71237;DHT22;58984;51.960;5.582;2024-01-11T15:43:40;7.30;55.00
71237;DHT22;58984;51.960;5.582;2024-01-11T15:46:06;7.30;55.70